Palisades, WA

6:23 PM PST on December 18, 2014 (GMT -0800)
Ephrata Municipal | Change Station
CLOSE
Current Station
Airport
Location: Ephrata,
Elevation: 1273 ft
Nearby Weather Stations
Active Advisory: Air Stagnation Advisory

Elev 1273 ft 47.31 °N, 119.52 °W | Updated 9 minutes ago

Overcast
Overcast
38 °F
Feels Like 34 °F
N
6
Wind Variable Wind from North

Today
High -- | Low -- °F
--% Chance of Precip.
Yesterday
High -- | Low -- °F
Precip. -- in
7:42 AM 4:09 PM
Waning Crescent, 11% visible
Pressure 29.94 in
Visibility 6.0 miles
Clouds Mostly Cloudy 1600 ft
Overcast 7000 ft
Windchill 34 °F
Dew Point 37 °F
Humidity 97%
Rainfall 0.02 in
Snow Depth Not available.
UV 0 out of 12
Pollen .50 out of 12
Air Quality Not available.
Flu Activity Not available.
SPECI KEPH 190214Z AUTO 36005KT 6SM -RA BR BKN016 OVC070 03/03 A2994 RMK AO2 RAE00B09 P0000 T00330028

More Conditions Fewer Conditions

Pressure 29.94 in
Visibility 6.0 miles
Clouds Mostly Cloudy 1600 ft
Overcast 7000 ft
Windchill 34 °F
Dew Point 37 °F
Humidity 97%
Rainfall 0.02 in
Snow Depth Not available.
UV 0 out of 12
Pollen .50 out of 12
Air Quality Not available.
Flu Activity Not available.
SPECI KEPH 190214Z AUTO 36005KT 6SM -RA BR BKN016 OVC070 03/03 A2994 RMK AO2 RAE00B09 P0000 T00330028

More Conditions Fewer Conditions

10-Day Weather Forecast

Almanac

Astronomy

Dec. 18, 2014 Rise Set
Actual Time
Civil Twilight
Nautical Twilight
Astronomical Twilight
Moon
Length of Visible Light
Length of Day
Tomorrow will be .
, % of the Moon is Illuminated

Today's Extremes

State Highs State Lows

Community

WunderPhotos

Upload Photos

1,779,030 photos uploaded!

WunderBlogs® & News

Nearby

Air Quality

  Air Quality AQ Index Pollutant
Not available.

Snow Depth

Station Depth Elevation

Earthquake Activity

City Distance Mag. Time & Date
Minimum magnitude displayed is 2.5.

Coastal Water Temperatures

Place Temperature

Nearby Weather Stations